sensor_id;sensor_type;location;lat;lon;timestamp;P1;durP1;ratioP1;P2;durP2;ratioP2
59302;SDS011;45074;52.764;6.896;2023-05-10T00:01:04;16.25;;;11.98;;
59302;SDS011;45074;52.764;6.896;2023-05-10T00:03:30;12.18;;;9.60;;
59302;SDS011;45074;52.764;6.896;2023-05-10T00:05:56;10.90;;;8.95;;
59302;SDS011;45074;52.764;6.896;2023-05-10T00:08:22;10.90;;;9.05;;
59302;SDS011;45074;52.764;6.896;2023-05-10T00:10:47;11.75;;;9.32;;
59302;SDS011;45074;52.764;6.896;2023-05-10T00:13:13;12.80;;;9.93;;
59302;SDS011;45074;52.764;6.896;2023-05-10T00:15:39;11.55;;;9.50;;
59302;SDS011;45074;52.764;6.896;2023-05-10T00:18:05;12.57;;;10.77;;
59302;SDS011;45074;52.764;6.896;2023-05-10T00:20:31;13.30;;;10.10;;
59302;SDS011;45074;52.764;6.896;2023-05-10T00:22:57;11.82;;;10.23;;
59302;SDS011;45074;52.764;6.896;2023-05-10T00:25:24;12.80;;;10.30;;
59302;SDS011;45074;52.764;6.896;2023-05-10T00:27:49;12.45;;;10.38;;
59302;SDS011;45074;52.764;6.896;2023-05-10T00:30:15;14.65;;;10.38;;
59302;SDS011;45074;52.764;6.896;2023-05-10T00:32:41;13.38;;;10.38;;
59302;SDS011;45074;52.764;6.896;2023-05-10T00:35:08;12.90;;;10.68;;
59302;SDS011;45074;52.764;6.896;2023-05-10T00:37:34;13.90;;;10.38;;
59302;SDS011;45074;52.764;6.896;2023-05-10T00:40:00;13.75;;;11.02;;
59302;SDS011;45074;52.764;6.896;2023-05-10T00:42:26;13.88;;;9.38;;
59302;SDS011;45074;52.764;6.896;2023-05-10T00:44:53;13.82;;;10.07;;
59302;SDS011;45074;52.764;6.896;2023-05-10T00:47:19;18.20;;;10.18;;
59302;SDS011;45074;52.764;6.896;2023-05-10T00:49:45;12.20;;;10.07;;
59302;SDS011;45074;52.764;6.896;2023-05-10T00:52:11;12.70;;;9.57;;
59302;SDS011;45074;52.764;6.896;2023-05-10T00:54:37;13.90;;;10.68;;
59302;SDS011;45074;52.764;6.896;2023-05-10T00:57:03;14.18;;;10.20;;
59302;SDS011;45074;52.764;6.896;2023-05-10T00:59:29;13.55;;;10.43;;
59302;SDS011;45074;52.764;6.896;2023-05-10T01:01:55;14.40;;;10.57;;
59302;SDS011;45074;52.764;6.896;2023-05-10T01:04:22;13.30;;;10.65;;
59302;SDS011;45074;52.764;6.896;2023-05-10T01:06:50;14.45;;;10.95;;
59302;SDS011;45074;52.764;6.896;2023-05-10T01:09:17;15.32;;;11.45;;
59302;SDS011;45074;52.764;6.896;2023-05-10T01:11:43;13.77;;;10.30;;
59302;SDS011;45074;52.764;6.896;2023-05-10T01:14:10;13.50;;;10.55;;
59302;SDS011;45074;52.764;6.896;2023-05-10T01:16:37;14.27;;;10.52;;
59302;SDS011;45074;52.764;6.896;2023-05-10T01:19:12;13.15;;;9.80;;
59302;SDS011;45074;52.764;6.896;2023-05-10T01:21:52;13.93;;;10.68;;
59302;SDS011;45074;52.764;6.896;2023-05-10T01:31:58;14.27;;;10.18;;
59302;SDS011;45074;52.764;6.896;2023-05-10T01:34:29;15.98;;;11.07;;
59302;SDS011;45074;52.764;6.896;2023-05-10T01:37:05;14.73;;;11.00;;
59302;SDS011;45074;52.764;6.896;2023-05-10T01:39:37;16.27;;;11.93;;
59302;SDS011;45074;52.764;6.896;2023-05-10T01:42:11;16.55;;;11.50;;
59302;SDS011;45074;52.764;6.896;2023-05-10T01:47:44;14.35;;;10.38;;
59302;SDS011;45074;52.764;6.896;2023-05-10T01:50:17;14.48;;;10.73;;
59302;SDS011;45074;52.764;6.896;2023-05-10T01:52:47;14.48;;;10.75;;
59302;SDS011;45074;52.764;6.896;2023-05-10T01:55:20;15.27;;;10.50;;
59302;SDS011;45074;52.764;6.896;2023-05-10T01:57:48;15.85;;;10.57;;
59302;SDS011;45074;52.764;6.896;2023-05-10T02:00:20;15.18;;;11.23;;
59302;SDS011;45074;52.764;6.896;2023-05-10T02:02:48;16.70;;;11.45;;
59302;SDS011;45074;52.764;6.896;2023-05-10T02:05:15;14.85;;;10.07;;
59302;SDS011;45074;52.764;6.896;2023-05-10T02:07:42;14.55;;;10.25;;
59302;SDS011;45074;52.764;6.896;2023-05-10T02:10:09;15.10;;;10.57;;
59302;SDS011;45074;52.764;6.896;2023-05-10T02:12:37;16.30;;;10.40;;
59302;SDS011;45074;52.764;6.896;2023-05-10T02:15:06;14.75;;;10.35;;
59302;SDS011;45074;52.764;6.896;2023-05-10T02:17:34;16.10;;;10.52;;
59302;SDS011;45074;52.764;6.896;2023-05-10T02:20:02;15.90;;;10.02;;
59302;SDS011;45074;52.764;6.896;2023-05-10T02:22:29;13.82;;;10.07;;
59302;SDS011;45074;52.764;6.896;2023-05-10T02:24:57;14.30;;;10.27;;
59302;SDS011;45074;52.764;6.896;2023-05-10T02:27:24;12.82;;;9.38;;
59302;SDS011;45074;52.764;6.896;2023-05-10T02:29:52;14.35;;;9.55;;
59302;SDS011;45074;52.764;6.896;2023-05-10T02:32:18;13.23;;;9.23;;
59302;SDS011;45074;52.764;6.896;2023-05-10T02:34:45;13.32;;;9.20;;
59302;SDS011;45074;52.764;6.896;2023-05-10T02:37:12;13.65;;;8.90;;
59302;SDS011;45074;52.764;6.896;2023-05-10T02:39:39;13.13;;;8.88;;
59302;SDS011;45074;52.764;6.896;2023-05-10T02:42:10;14.00;;;8.73;;
59302;SDS011;45074;52.764;6.896;2023-05-10T02:44:41;12.38;;;8.23;;
59302;SDS011;45074;52.764;6.896;2023-05-10T02:47:08;13.43;;;8.88;;
59302;SDS011;45074;52.764;6.896;2023-05-10T02:49:34;13.38;;;8.73;;
59302;SDS011;45074;52.764;6.896;2023-05-10T02:52:01;13.65;;;8.43;;
59302;SDS011;45074;52.764;6.896;2023-05-10T02:54:32;12.52;;;8.02;;
59302;SDS011;45074;52.764;6.896;2023-05-10T02:57:04;12.93;;;8.23;;
59302;SDS011;45074;52.764;6.896;2023-05-10T02:59:31;13.13;;;8.68;;
59302;SDS011;45074;52.764;6.896;2023-05-10T03:01:58;13.27;;;8.43;;
59302;SDS011;45074;52.764;6.896;2023-05-10T03:04:25;12.82;;;8.73;;
59302;SDS011;45074;52.764;6.896;2023-05-10T03:06:51;13.57;;;7.80;;
59302;SDS011;45074;52.764;6.896;2023-05-10T03:09:17;11.80;;;7.53;;
59302;SDS011;45074;52.764;6.896;2023-05-10T03:19:53;14.40;;;8.27;;
59302;SDS011;45074;52.764;6.896;2023-05-10T03:22:31;13.40;;;8.40;;
59302;SDS011;45074;52.764;6.896;2023-05-10T03:25:03;12.05;;;8.32;;
59302;SDS011;45074;52.764;6.896;2023-05-10T03:27:31;12.13;;;8.18;;
59302;SDS011;45074;52.764;6.896;2023-05-10T03:29:58;11.82;;;8.15;;
59302;SDS011;45074;52.764;6.896;2023-05-10T03:32:26;12.70;;;8.05;;
59302;SDS011;45074;52.764;6.896;2023-05-10T03:34:52;11.73;;;7.63;;
59302;SDS011;45074;52.764;6.896;2023-05-10T03:37:18;12.48;;;8.27;;
59302;SDS011;45074;52.764;6.896;2023-05-10T03:39:44;11.45;;;7.88;;
59302;SDS011;45074;52.764;6.896;2023-05-10T03:42:10;12.25;;;8.35;;
59302;SDS011;45074;52.764;6.896;2023-05-10T03:44:37;11.85;;;8.63;;
59302;SDS011;45074;52.764;6.896;2023-05-10T03:47:06;11.57;;;7.95;;
59302;SDS011;45074;52.764;6.896;2023-05-10T03:49:32;12.45;;;8.65;;
59302;SDS011;45074;52.764;6.896;2023-05-10T03:51:58;12.13;;;8.07;;
59302;SDS011;45074;52.764;6.896;2023-05-10T03:54:24;13.45;;;8.32;;
59302;SDS011;45074;52.764;6.896;2023-05-10T03:56:50;12.77;;;8.20;;
59302;SDS011;45074;52.764;6.896;2023-05-10T03:59:16;12.02;;;8.75;;
59302;SDS011;45074;52.764;6.896;2023-05-10T04:01:42;12.07;;;8.32;;
59302;SDS011;45074;52.764;6.896;2023-05-10T04:04:08;12.95;;;8.45;;
59302;SDS011;45074;52.764;6.896;2023-05-10T04:06:34;11.00;;;7.57;;
59302;SDS011;45074;52.764;6.896;2023-05-10T04:09:00;12.95;;;8.60;;
59302;SDS011;45074;52.764;6.896;2023-05-10T04:11:29;13.40;;;8.85;;
59302;SDS011;45074;52.764;6.896;2023-05-10T04:13:55;11.98;;;8.77;;
59302;SDS011;45074;52.764;6.896;2023-05-10T04:16:21;13.00;;;8.55;;
59302;SDS011;45074;52.764;6.896;2023-05-10T04:18:47;11.07;;;7.95;;
59302;SDS011;45074;52.764;6.896;2023-05-10T04:21:13;12.45;;;8.45;;
59302;SDS011;45074;52.764;6.896;2023-05-10T04:23:40;12.15;;;8.02;;
59302;SDS011;45074;52.764;6.896;2023-05-10T04:26:06;11.07;;;7.93;;
59302;SDS011;45074;52.764;6.896;2023-05-10T04:28:32;12.65;;;8.50;;
59302;SDS011;45074;52.764;6.896;2023-05-10T04:31:05;12.27;;;8.80;;
59302;SDS011;45074;52.764;6.896;2023-05-10T04:33:32;13.25;;;9.18;;
59302;SDS011;45074;52.764;6.896;2023-05-10T04:35:58;12.27;;;8.80;;
59302;SDS011;45074;52.764;6.896;2023-05-10T04:38:24;14.13;;;8.88;;
59302;SDS011;45074;52.764;6.896;2023-05-10T04:40:51;13.27;;;9.23;;
59302;SDS011;45074;52.764;6.896;2023-05-10T04:43:17;12.93;;;9.32;;
59302;SDS011;45074;52.764;6.896;2023-05-10T04:45:43;13.85;;;9.40;;
59302;SDS011;45074;52.764;6.896;2023-05-10T04:48:09;13.07;;;9.80;;
59302;SDS011;45074;52.764;6.896;2023-05-10T04:50:35;15.40;;;9.52;;
59302;SDS011;45074;52.764;6.896;2023-05-10T04:53:01;15.10;;;10.38;;
59302;SDS011;45074;52.764;6.896;2023-05-10T04:55:27;15.73;;;9.80;;
59302;SDS011;45074;52.764;6.896;2023-05-10T04:57:53;14.50;;;10.18;;
59302;SDS011;45074;52.764;6.896;2023-05-10T05:00:21;14.38;;;9.70;;
59302;SDS011;45074;52.764;6.896;2023-05-10T05:02:47;14.27;;;9.95;;
59302;SDS011;45074;52.764;6.896;2023-05-10T05:05:14;15.77;;;9.93;;
59302;SDS011;45074;52.764;6.896;2023-05-10T05:07:40;14.63;;;9.65;;
59302;SDS011;45074;52.764;6.896;2023-05-10T05:10:06;15.15;;;10.07;;
59302;SDS011;45074;52.764;6.896;2023-05-10T05:12:33;13.90;;;10.02;;
59302;SDS011;45074;52.764;6.896;2023-05-10T05:14:59;17.15;;;10.88;;
59302;SDS011;45074;52.764;6.896;2023-05-10T05:17:25;15.55;;;10.80;;
59302;SDS011;45074;52.764;6.896;2023-05-10T05:19:51;15.75;;;10.60;;
59302;SDS011;45074;52.764;6.896;2023-05-10T05:22:17;16.30;;;10.68;;
59302;SDS011;45074;52.764;6.896;2023-05-10T05:24:53;15.32;;;10.02;;
59302;SDS011;45074;52.764;6.896;2023-05-10T05:27:19;14.13;;;9.25;;
59302;SDS011;45074;52.764;6.896;2023-05-10T05:29:49;16.42;;;9.20;;
59302;SDS011;45074;52.764;6.896;2023-05-10T05:32:15;14.52;;;9.57;;
59302;SDS011;45074;52.764;6.896;2023-05-10T05:34:41;15.30;;;9.20;;
59302;SDS011;45074;52.764;6.896;2023-05-10T05:37:07;16.30;;;9.00;;
59302;SDS011;45074;52.764;6.896;2023-05-10T05:39:33;14.30;;;8.35;;
59302;SDS011;45074;52.764;6.896;2023-05-10T05:41:59;13.27;;;8.20;;
59302;SDS011;45074;52.764;6.896;2023-05-10T05:44:25;14.25;;;8.82;;
59302;SDS011;45074;52.764;6.896;2023-05-10T05:46:52;12.50;;;8.50;;
59302;SDS011;45074;52.764;6.896;2023-05-10T05:49:18;15.77;;;8.52;;
59302;SDS011;45074;52.764;6.896;2023-05-10T05:51:44;12.90;;;8.32;;
59302;SDS011;45074;52.764;6.896;2023-05-10T05:54:10;14.60;;;8.38;;
59302;SDS011;45074;52.764;6.896;2023-05-10T05:56:36;16.60;;;8.23;;
59302;SDS011;45074;52.764;6.896;2023-05-10T05:59:02;13.00;;;8.10;;
59302;SDS011;45074;52.764;6.896;2023-05-10T06:01:28;14.93;;;8.68;;
59302;SDS011;45074;52.764;6.896;2023-05-10T06:03:55;13.50;;;8.30;;
59302;SDS011;45074;52.764;6.896;2023-05-10T06:06:21;14.35;;;8.10;;
59302;SDS011;45074;52.764;6.896;2023-05-10T06:08:47;14.32;;;8.57;;
59302;SDS011;45074;52.764;6.896;2023-05-10T06:11:13;13.40;;;8.13;;
59302;SDS011;45074;52.764;6.896;2023-05-10T06:13:39;16.40;;;8.98;;
59302;SDS011;45074;52.764;6.896;2023-05-10T06:16:05;13.35;;;7.85;;
59302;SDS011;45074;52.764;6.896;2023-05-10T06:18:31;14.05;;;8.18;;
59302;SDS011;45074;52.764;6.896;2023-05-10T06:20:57;15.45;;;8.18;;
59302;SDS011;45074;52.764;6.896;2023-05-10T06:23:23;13.00;;;8.27;;
59302;SDS011;45074;52.764;6.896;2023-05-10T06:25:50;13.82;;;8.25;;
59302;SDS011;45074;52.764;6.896;2023-05-10T06:28:16;16.05;;;8.73;;
59302;SDS011;45074;52.764;6.896;2023-05-10T06:30:42;14.38;;;8.63;;
59302;SDS011;45074;52.764;6.896;2023-05-10T06:33:09;12.93;;;8.20;;
59302;SDS011;45074;52.764;6.896;2023-05-10T06:35:35;14.23;;;9.20;;
59302;SDS011;45074;52.764;6.896;2023-05-10T06:38:01;13.77;;;8.13;;
59302;SDS011;45074;52.764;6.896;2023-05-10T06:40:27;12.43;;;7.50;;
59302;SDS011;45074;52.764;6.896;2023-05-10T06:42:53;13.93;;;8.07;;
59302;SDS011;45074;52.764;6.896;2023-05-10T06:45:19;15.52;;;8.65;;
59302;SDS011;45074;52.764;6.896;2023-05-10T06:47:46;12.40;;;7.60;;
59302;SDS011;45074;52.764;6.896;2023-05-10T06:50:12;12.13;;;8.00;;
59302;SDS011;45074;52.764;6.896;2023-05-10T06:52:38;13.57;;;8.00;;
59302;SDS011;45074;52.764;6.896;2023-05-10T06:55:04;14.88;;;8.10;;
59302;SDS011;45074;52.764;6.896;2023-05-10T06:57:30;13.82;;;7.95;;
59302;SDS011;45074;52.764;6.896;2023-05-10T06:59:57;14.07;;;8.05;;
59302;SDS011;45074;52.764;6.896;2023-05-10T07:02:23;14.93;;;8.32;;
59302;SDS011;45074;52.764;6.896;2023-05-10T07:04:49;12.55;;;7.18;;
59302;SDS011;45074;52.764;6.896;2023-05-10T07:07:16;12.65;;;7.50;;
59302;SDS011;45074;52.764;6.896;2023-05-10T07:09:42;14.60;;;7.90;;
59302;SDS011;45074;52.764;6.896;2023-05-10T07:12:08;12.43;;;7.20;;
59302;SDS011;45074;52.764;6.896;2023-05-10T07:14:34;13.35;;;7.50;;
59302;SDS011;45074;52.764;6.896;2023-05-10T07:17:00;11.65;;;7.25;;
59302;SDS011;45074;52.764;6.896;2023-05-10T07:19:26;12.82;;;7.53;;
59302;SDS011;45074;52.764;6.896;2023-05-10T07:21:54;12.55;;;7.40;;
59302;SDS011;45074;52.764;6.896;2023-05-10T07:24:20;12.88;;;7.40;;
59302;SDS011;45074;52.764;6.896;2023-05-10T07:26:46;10.85;;;6.75;;
59302;SDS011;45074;52.764;6.896;2023-05-10T07:29:12;13.35;;;7.00;;
59302;SDS011;45074;52.764;6.896;2023-05-10T07:31:38;13.93;;;7.07;;
59302;SDS011;45074;52.764;6.896;2023-05-10T07:34:06;12.40;;;6.68;;
59302;SDS011;45074;52.764;6.896;2023-05-10T07:36:32;12.20;;;6.65;;
59302;SDS011;45074;52.764;6.896;2023-05-10T07:38:58;11.55;;;6.80;;
59302;SDS011;45074;52.764;6.896;2023-05-10T07:41:24;11.52;;;6.72;;
59302;SDS011;45074;52.764;6.896;2023-05-10T07:43:51;11.23;;;6.00;;
59302;SDS011;45074;52.764;6.896;2023-05-10T07:46:17;9.88;;;5.75;;
59302;SDS011;45074;52.764;6.896;2023-05-10T07:48:44;9.95;;;5.97;;
59302;SDS011;45074;52.764;6.896;2023-05-10T07:51:11;11.20;;;6.00;;
59302;SDS011;45074;52.764;6.896;2023-05-10T07:53:37;10.15;;;5.72;;
59302;SDS011;45074;52.764;6.896;2023-05-10T07:56:19;9.38;;;5.32;;
59302;SDS011;45074;52.764;6.896;2023-05-10T07:58:46;11.10;;;6.05;;
59302;SDS011;45074;52.764;6.896;2023-05-10T08:01:12;11.43;;;6.10;;
59302;SDS011;45074;52.764;6.896;2023-05-10T08:03:38;10.23;;;6.00;;
59302;SDS011;45074;52.764;6.896;2023-05-10T08:06:04;12.05;;;6.10;;
59302;SDS011;45074;52.764;6.896;2023-05-10T08:08:30;12.25;;;5.97;;
59302;SDS011;45074;52.764;6.896;2023-05-10T08:10:57;10.95;;;6.07;;
59302;SDS011;45074;52.764;6.896;2023-05-10T08:13:23;10.20;;;5.72;;
59302;SDS011;45074;52.764;6.896;2023-05-10T08:15:48;11.13;;;6.13;;
59302;SDS011;45074;52.764;6.896;2023-05-10T08:18:17;10.23;;;5.90;;
59302;SDS011;45074;52.764;6.896;2023-05-10T08:20:43;9.82;;;5.70;;
59302;SDS011;45074;52.764;6.896;2023-05-10T08:23:09;9.70;;;5.75;;
59302;SDS011;45074;52.764;6.896;2023-05-10T08:25:36;10.13;;;5.78;;
59302;SDS011;45074;52.764;6.896;2023-05-10T08:28:02;10.63;;;5.85;;
59302;SDS011;45074;52.764;6.896;2023-05-10T08:30:28;12.48;;;5.70;;
59302;SDS011;45074;52.764;6.896;2023-05-10T08:32:54;10.63;;;6.40;;
59302;SDS011;45074;52.764;6.896;2023-05-10T08:35:20;11.35;;;5.80;;
59302;SDS011;45074;52.764;6.896;2023-05-10T08:37:46;9.75;;;5.85;;
59302;SDS011;45074;52.764;6.896;2023-05-10T08:40:12;10.60;;;5.60;;
59302;SDS011;45074;52.764;6.896;2023-05-10T08:42:39;8.30;;;5.22;;
59302;SDS011;45074;52.764;6.896;2023-05-10T08:45:08;9.90;;;5.03;;
59302;SDS011;45074;52.764;6.896;2023-05-10T08:47:36;8.95;;;4.95;;
59302;SDS011;45074;52.764;6.896;2023-05-10T08:50:03;9.38;;;5.18;;
59302;SDS011;45074;52.764;6.896;2023-05-10T08:52:30;8.93;;;4.57;;
59302;SDS011;45074;52.764;6.896;2023-05-10T08:54:56;8.98;;;5.00;;
59302;SDS011;45074;52.764;6.896;2023-05-10T08:57:22;9.07;;;4.90;;
59302;SDS011;45074;52.764;6.896;2023-05-10T08:59:48;8.93;;;5.25;;
59302;SDS011;45074;52.764;6.896;2023-05-10T09:02:14;10.05;;;4.93;;
59302;SDS011;45074;52.764;6.896;2023-05-10T09:04:40;8.25;;;4.50;;
59302;SDS011;45074;52.764;6.896;2023-05-10T09:07:06;9.45;;;4.50;;
59302;SDS011;45074;52.764;6.896;2023-05-10T09:09:33;10.30;;;4.70;;
59302;SDS011;45074;52.764;6.896;2023-05-10T09:11:59;8.13;;;4.43;;
59302;SDS011;45074;52.764;6.896;2023-05-10T09:14:25;9.85;;;4.60;;
59302;SDS011;45074;52.764;6.896;2023-05-10T09:16:52;8.05;;;4.07;;
59302;SDS011;45074;52.764;6.896;2023-05-10T09:19:20;8.82;;;4.55;;
59302;SDS011;45074;52.764;6.896;2023-05-10T09:21:46;8.25;;;4.35;;
59302;SDS011;45074;52.764;6.896;2023-05-10T09:24:12;8.80;;;3.85;;
59302;SDS011;45074;52.764;6.896;2023-05-10T09:26:45;7.75;;;4.13;;
59302;SDS011;45074;52.764;6.896;2023-05-10T09:29:14;8.35;;;4.28;;
59302;SDS011;45074;52.764;6.896;2023-05-10T09:31:47;8.05;;;4.15;;
59302;SDS011;45074;52.764;6.896;2023-05-10T09:34:28;9.07;;;4.68;;
59302;SDS011;45074;52.764;6.896;2023-05-10T09:36:57;9.13;;;4.35;;
59302;SDS011;45074;52.764;6.896;2023-05-10T09:42:07;7.63;;;4.40;;
59302;SDS011;45074;52.764;6.896;2023-05-10T09:44:35;7.68;;;4.32;;
59302;SDS011;45074;52.764;6.896;2023-05-10T09:47:01;8.30;;;4.93;;
59302;SDS011;45074;52.764;6.896;2023-05-10T09:49:27;7.22;;;4.38;;
59302;SDS011;45074;52.764;6.896;2023-05-10T09:52:12;9.00;;;4.78;;
59302;SDS011;45074;52.764;6.896;2023-05-10T09:54:37;9.77;;;4.30;;
59302;SDS011;45074;52.764;6.896;2023-05-10T09:57:21;7.60;;;4.50;;
59302;SDS011;45074;52.764;6.896;2023-05-10T09:59:47;7.85;;;4.90;;
59302;SDS011;45074;52.764;6.896;2023-05-10T10:02:13;7.88;;;4.72;;
59302;SDS011;45074;52.764;6.896;2023-05-10T10:04:39;7.93;;;4.72;;
59302;SDS011;45074;52.764;6.896;2023-05-10T10:07:06;8.63;;;4.88;;
59302;SDS011;45074;52.764;6.896;2023-05-10T10:09:32;8.00;;;5.35;;
59302;SDS011;45074;52.764;6.896;2023-05-10T10:12:01;7.78;;;4.78;;
59302;SDS011;45074;52.764;6.896;2023-05-10T10:14:28;7.97;;;4.85;;
59302;SDS011;45074;52.764;6.896;2023-05-10T10:16:54;9.00;;;4.70;;
59302;SDS011;45074;52.764;6.896;2023-05-10T10:19:20;8.80;;;4.90;;
59302;SDS011;45074;52.764;6.896;2023-05-10T10:21:47;8.70;;;5.63;;
59302;SDS011;45074;52.764;6.896;2023-05-10T10:24:14;9.13;;;5.63;;
59302;SDS011;45074;52.764;6.896;2023-05-10T10:26:40;9.15;;;5.95;;
59302;SDS011;45074;52.764;6.896;2023-05-10T10:34:45;9.57;;;6.15;;
59302;SDS011;45074;52.764;6.896;2023-05-10T10:37:12;13.10;;;6.28;;
59302;SDS011;45074;52.764;6.896;2023-05-10T10:39:38;9.50;;;6.15;;
59302;SDS011;45074;52.764;6.896;2023-05-10T10:42:04;8.80;;;5.63;;
59302;SDS011;45074;52.764;6.896;2023-05-10T10:47:05;8.70;;;5.82;;
59302;SDS011;45074;52.764;6.896;2023-05-10T10:49:38;9.13;;;5.82;;
59302;SDS011;45074;52.764;6.896;2023-05-10T10:55:08;9.07;;;5.75;;
59302;SDS011;45074;52.764;6.896;2023-05-10T10:57:46;9.02;;;6.15;;
59302;SDS011;45074;52.764;6.896;2023-05-10T11:00:20;10.88;;;6.15;;
59302;SDS011;45074;52.764;6.896;2023-05-10T11:03:00;8.73;;;5.35;;
59302;SDS011;45074;52.764;6.896;2023-05-10T11:05:44;11.00;;;6.47;;
59302;SDS011;45074;52.764;6.896;2023-05-10T11:08:12;9.95;;;6.30;;
59302;SDS011;45074;52.764;6.896;2023-05-10T11:10:50;9.88;;;6.05;;
59302;SDS011;45074;52.764;6.896;2023-05-10T11:15:51;10.13;;;6.75;;
59302;SDS011;45074;52.764;6.896;2023-05-10T11:18:22;11.23;;;7.80;;
59302;SDS011;45074;52.764;6.896;2023-05-10T11:20:50;10.93;;;6.82;;
59302;SDS011;45074;52.764;6.896;2023-05-10T11:23:16;10.60;;;7.00;;
59302;SDS011;45074;52.764;6.896;2023-05-10T11:25:43;10.00;;;6.60;;
59302;SDS011;45074;52.764;6.896;2023-05-10T11:28:13;10.60;;;6.60;;
59302;SDS011;45074;52.764;6.896;2023-05-10T11:30:39;11.27;;;7.30;;
59302;SDS011;45074;52.764;6.896;2023-05-10T11:33:06;10.48;;;6.97;;
59302;SDS011;45074;52.764;6.896;2023-05-10T11:35:36;9.32;;;6.15;;
59302;SDS011;45074;52.764;6.896;2023-05-10T11:38:07;10.10;;;6.55;;
59302;SDS011;45074;52.764;6.896;2023-05-10T11:40:34;11.90;;;6.78;;
59302;SDS011;45074;52.764;6.896;2023-05-10T11:43:01;10.50;;;6.68;;
59302;SDS011;45074;52.764;6.896;2023-05-10T11:45:27;11.73;;;7.32;;
59302;SDS011;45074;52.764;6.896;2023-05-10T11:47:55;10.35;;;6.90;;
59302;SDS011;45074;52.764;6.896;2023-05-10T11:50:21;11.43;;;8.15;;
59302;SDS011;45074;52.764;6.896;2023-05-10T11:52:51;10.63;;;7.18;;
59302;SDS011;45074;52.764;6.896;2023-05-10T11:55:17;10.75;;;6.95;;
59302;SDS011;45074;52.764;6.896;2023-05-10T11:57:43;10.82;;;6.28;;
59302;SDS011;45074;52.764;6.896;2023-05-10T12:00:11;10.27;;;6.07;;
59302;SDS011;45074;52.764;6.896;2023-05-10T12:02:37;8.90;;;5.65;;
59302;SDS011;45074;52.764;6.896;2023-05-10T12:05:04;8.68;;;5.53;;
59302;SDS011;45074;52.764;6.896;2023-05-10T12:07:30;9.32;;;5.50;;
59302;SDS011;45074;52.764;6.896;2023-05-10T12:10:03;8.52;;;5.38;;
59302;SDS011;45074;52.764;6.896;2023-05-10T12:12:40;10.95;;;5.95;;
59302;SDS011;45074;52.764;6.896;2023-05-10T12:15:10;8.82;;;6.20;;
59302;SDS011;45074;52.764;6.896;2023-05-10T12:17:43;9.90;;;6.07;;
59302;SDS011;45074;52.764;6.896;2023-05-10T12:20:13;9.55;;;6.13;;
59302;SDS011;45074;52.764;6.896;2023-05-10T12:22:48;7.88;;;5.45;;
59302;SDS011;45074;52.764;6.896;2023-05-10T12:25:16;8.95;;;5.85;;
59302;SDS011;45074;52.764;6.896;2023-05-10T12:27:52;8.30;;;5.47;;
59302;SDS011;45074;52.764;6.896;2023-05-10T12:30:23;9.13;;;6.53;;
59302;SDS011;45074;52.764;6.896;2023-05-10T12:32:50;9.75;;;6.50;;
59302;SDS011;45074;52.764;6.896;2023-05-10T12:35:16;9.45;;;6.50;;
59302;SDS011;45074;52.764;6.896;2023-05-10T12:37:45;9.52;;;6.45;;
59302;SDS011;45074;52.764;6.896;2023-05-10T12:40:11;11.23;;;7.20;;
59302;SDS011;45074;52.764;6.896;2023-05-10T12:42:38;11.07;;;6.57;;
59302;SDS011;45074;52.764;6.896;2023-05-10T12:45:04;10.32;;;6.80;;
59302;SDS011;45074;52.764;6.896;2023-05-10T12:47:31;9.93;;;6.65;;
59302;SDS011;45074;52.764;6.896;2023-05-10T12:49:58;12.68;;;7.07;;
59302;SDS011;45074;52.764;6.896;2023-05-10T12:52:24;10.45;;;6.53;;
59302;SDS011;45074;52.764;6.896;2023-05-10T12:54:51;11.10;;;6.50;;
59302;SDS011;45074;52.764;6.896;2023-05-10T12:57:17;11.05;;;7.07;;
59302;SDS011;45074;52.764;6.896;2023-05-10T12:59:43;10.80;;;6.90;;
59302;SDS011;45074;52.764;6.896;2023-05-10T13:02:10;10.93;;;6.40;;
59302;SDS011;45074;52.764;6.896;2023-05-10T13:04:36;9.00;;;5.57;;
59302;SDS011;45074;52.764;6.896;2023-05-10T13:07:05;10.18;;;5.43;;
59302;SDS011;45074;52.764;6.896;2023-05-10T13:09:34;9.35;;;5.80;;
59302;SDS011;45074;52.764;6.896;2023-05-10T13:12:00;10.93;;;5.75;;
59302;SDS011;45074;52.764;6.896;2023-05-10T13:14:26;9.10;;;5.63;;
59302;SDS011;45074;52.764;6.896;2023-05-10T13:16:52;11.07;;;5.65;;
59302;SDS011;45074;52.764;6.896;2023-05-10T13:19:19;10.20;;;5.78;;
59302;SDS011;45074;52.764;6.896;2023-05-10T13:21:45;9.10;;;6.10;;
59302;SDS011;45074;52.764;6.896;2023-05-10T13:24:11;10.82;;;5.82;;
59302;SDS011;45074;52.764;6.896;2023-05-10T13:26:39;9.07;;;5.85;;
59302;SDS011;45074;52.764;6.896;2023-05-10T13:29:05;9.23;;;5.55;;
59302;SDS011;45074;52.764;6.896;2023-05-10T13:31:32;9.98;;;6.30;;
59302;SDS011;45074;52.764;6.896;2023-05-10T13:33:58;10.90;;;6.68;;
59302;SDS011;45074;52.764;6.896;2023-05-10T13:36:24;10.98;;;6.50;;
59302;SDS011;45074;52.764;6.896;2023-05-10T13:38:50;9.57;;;6.43;;
59302;SDS011;45074;52.764;6.896;2023-05-10T13:41:16;11.10;;;6.65;;
59302;SDS011;45074;52.764;6.896;2023-05-10T13:43:42;10.48;;;7.00;;
59302;SDS011;45074;52.764;6.896;2023-05-10T13:46:08;10.20;;;6.32;;
59302;SDS011;45074;52.764;6.896;2023-05-10T13:48:34;8.55;;;5.78;;
59302;SDS011;45074;52.764;6.896;2023-05-10T13:51:03;11.00;;;6.47;;
59302;SDS011;45074;52.764;6.896;2023-05-10T13:53:29;9.73;;;6.25;;
59302;SDS011;45074;52.764;6.896;2023-05-10T13:55:55;10.13;;;6.18;;
59302;SDS011;45074;52.764;6.896;2023-05-10T13:58:22;11.95;;;7.28;;
59302;SDS011;45074;52.764;6.896;2023-05-10T14:00:48;10.32;;;6.68;;
59302;SDS011;45074;52.764;6.896;2023-05-10T14:03:14;11.13;;;6.85;;
59302;SDS011;45074;52.764;6.896;2023-05-10T14:05:40;10.05;;;7.20;;
59302;SDS011;45074;52.764;6.896;2023-05-10T14:08:06;11.15;;;7.00;;
59302;SDS011;45074;52.764;6.896;2023-05-10T14:10:34;11.20;;;7.18;;
59302;SDS011;45074;52.764;6.896;2023-05-10T14:13:00;11.52;;;6.70;;
59302;SDS011;45074;52.764;6.896;2023-05-10T14:15:26;10.52;;;7.07;;
59302;SDS011;45074;52.764;6.896;2023-05-10T14:17:52;10.90;;;7.03;;
59302;SDS011;45074;52.764;6.896;2023-05-10T14:20:18;11.27;;;6.80;;
59302;SDS011;45074;52.764;6.896;2023-05-10T14:22:44;11.95;;;7.43;;
59302;SDS011;45074;52.764;6.896;2023-05-10T14:25:10;11.82;;;8.10;;
59302;SDS011;45074;52.764;6.896;2023-05-10T14:27:36;10.95;;;6.00;;
59302;SDS011;45074;52.764;6.896;2023-05-10T14:30:02;12.80;;;5.25;;
59302;SDS011;45074;52.764;6.896;2023-05-10T14:32:28;9.80;;;5.75;;
59302;SDS011;45074;52.764;6.896;2023-05-10T14:34:54;10.93;;;5.88;;
59302;SDS011;45074;52.764;6.896;2023-05-10T14:37:20;8.73;;;5.03;;
59302;SDS011;45074;52.764;6.896;2023-05-10T14:39:46;10.48;;;4.70;;
59302;SDS011;45074;52.764;6.896;2023-05-10T14:42:13;8.68;;;4.78;;
59302;SDS011;45074;52.764;6.896;2023-05-10T14:44:38;7.68;;;4.50;;
59302;SDS011;45074;52.764;6.896;2023-05-10T14:47:05;8.25;;;5.00;;
59302;SDS011;45074;52.764;6.896;2023-05-10T14:49:31;9.07;;;4.70;;
59302;SDS011;45074;52.764;6.896;2023-05-10T14:51:57;7.95;;;4.40;;
59302;SDS011;45074;52.764;6.896;2023-05-10T14:54:23;9.38;;;4.68;;
59302;SDS011;45074;52.764;6.896;2023-05-10T14:56:49;8.93;;;4.70;;
59302;SDS011;45074;52.764;6.896;2023-05-10T14:59:15;8.20;;;4.75;;
59302;SDS011;45074;52.764;6.896;2023-05-10T15:01:41;9.07;;;4.90;;
59302;SDS011;45074;52.764;6.896;2023-05-10T15:04:07;7.97;;;4.47;;
59302;SDS011;45074;52.764;6.896;2023-05-10T15:06:34;9.98;;;5.28;;
59302;SDS011;45074;52.764;6.896;2023-05-10T15:09:01;8.35;;;4.75;;
59302;SDS011;45074;52.764;6.896;2023-05-10T15:11:28;10.20;;;5.80;;